Time;durP1;ratioP1;P1;durP2;ratioP2;P2;SDS_P1;SDS_P2;PMS_P1;PMS_P2;Temp;Humidity;BMP_temperature;BMP_pressure;BME280_temperature;BME280_humidity;BME280_pressure;Samples;Min_cycle;Max_cycle;Signal;HPM_P1;HPM_P2
2021/09/09 00:01:30;;;;;;;11.15;3.80;;;;;;;28.77;35.90;96367.56;4970341;28;21103;-29
2021/09/09 00:03:56;;;;;;;7.53;3.88;;;;;;;28.77;35.67;96373.69;4969368;28;20081;-31
2021/09/09 00:06:21;;;;;;;5.05;3.92;;;;;;;28.77;35.67;96380.75;4967078;28;20488;-31
2021/09/09 00:08:47;;;;;;;4.20;3.80;;;;;;;28.77;35.58;96378.97;4970930;28;20034;-31
2021/09/09 00:11:12;;;;;;;5.07;4.18;;;;;;;28.77;35.64;96372.84;4972933;28;20515;-31
2021/09/09 00:13:38;;;;;;;4.68;3.85;;;;;;;28.77;35.62;96370.22;4969057;28;20051;-30
2021/09/09 00:16:03;;;;;;;6.63;4.00;;;;;;;28.77;35.67;96364.94;4972487;28;20599;-29
2021/09/09 00:18:29;;;;;;;6.28;3.90;;;;;;;28.77;35.61;96370.22;4971281;28;20030;-29
2021/09/09 00:20:54;;;;;;;5.95;4.03;;;;;;;28.77;35.70;96370.22;4962210;28;20046;-31
2021/09/09 00:23:20;;;;;;;6.00;3.78;;;;;;;28.76;35.64;96368.53;4980221;28;20026;-30
2021/09/09 00:25:45;;;;;;;5.45;3.70;;;;;;;28.77;35.82;96364.94;4965718;28;20420;-30
2021/09/09 00:28:11;;;;;;;4.68;3.80;;;;;;;28.77;35.91;96370.22;4967408;28;20029;-29
2021/09/09 00:30:36;;;;;;;8.75;4.03;;;;;;;28.77;35.76;96367.56;4969313;28;20038;-30
2021/09/09 00:33:02;;;;;;;3.65;3.33;;;;;;;28.77;35.75;96368.44;4969189;28;20030;-30
2021/09/09 00:35:27;;;;;;;4.43;4.00;;;;;;;28.78;35.60;96366.63;4974417;28;20616;-30
2021/09/09 00:37:52;;;;;;;5.57;3.90;;;;;;;28.77;35.64;96367.56;4969417;28;20623;-30
2021/09/09 00:40:18;;;;;;;4.30;3.78;;;;;;;28.77;35.72;96367.56;4968364;28;20037;-29
2021/09/09 00:42:43;;;;;;;6.90;3.83;;;;;;;28.77;35.69;96367.56;4970647;28;20030;-31
2021/09/09 00:45:09;;;;;;;7.80;3.88;;;;;;;28.77;35.53;96365.78;4976276;28;20030;-31
2021/09/09 00:47:35;;;;;;;4.80;3.80;;;;;;;28.77;35.59;96359.66;4979357;28;20030;-32
2021/09/09 00:50:00;;;;;;;4.90;3.70;;;;;;;28.77;35.51;96363.16;4969477;28;20045;-29
2021/09/09 00:52:25;;;;;;;5.43;3.92;;;;;;;28.77;35.62;96363.16;4965304;28;20033;-27
2021/09/09 00:54:51;;;;;;;9.18;3.83;;;;;;;28.76;35.51;96360.63;4977221;28;20034;-30
2021/09/09 00:57:16;;;;;;;6.18;3.50;;;;;;;28.75;35.66;96357.13;4969853;28;20022;-30
2021/09/09 00:59:43;;;;;;;4.72;3.63;;;;;;;28.77;36.03;96357.03;4973101;28;20030;-28
2021/09/09 01:02:08;;;;;;;6.20;3.75;;;;;;;28.76;35.74;96352.72;4974196;28;20030;-29
2021/09/09 01:04:33;;;;;;;5.32;3.70;;;;;;;28.75;35.53;96348.41;4981868;28;20649;-31
2021/09/09 01:06:59;;;;;;;3.92;3.50;;;;;;;28.75;35.73;96348.41;4980540;28;20089;-31
2021/09/09 01:09:24;;;;;;;5.53;3.55;;;;;;;28.75;35.46;96346.59;4974392;28;20034;-30
2021/09/09 01:11:50;;;;;;;4.32;3.42;;;;;;;28.76;35.52;96356.16;4981158;28;20081;-30
2021/09/09 01:14:16;;;;;;;4.82;3.58;;;;;;;28.71;35.55;96334.56;4980733;28;20031;-32
2021/09/09 01:16:42;;;;;;;4.30;3.45;;;;;;;28.74;35.44;96337.00;4971837;28;20911;-30
2021/09/09 01:19:08;;;;;;;4.57;3.70;;;;;;;28.76;35.56;96342.16;4973125;28;20034;-30
2021/09/09 01:21:33;;;;;;;6.95;3.97;;;;;;;28.75;35.50;96345.75;4974509;28;20782;-31
2021/09/09 01:23:59;;;;;;;4.22;3.53;;;;;;;28.76;35.62;96336.91;4969002;28;20140;-30
2021/09/09 01:26:27;;;;;;;3.85;3.45;;;;;;;28.76;35.48;96339.53;4976049;28;20041;-30
2021/09/09 01:28:55;;;;;;;5.53;3.95;;;;;;;28.76;35.55;96339.53;4975993;28;20045;-32
2021/09/09 01:31:21;;;;;;;9.88;3.70;;;;;;;28.76;35.69;96336.91;4969465;28;21263;-31
2021/09/09 01:33:46;;;;;;;4.68;3.70;;;;;;;28.75;35.46;96340.50;4979370;28;20164;-30
2021/09/09 01:36:12;;;;;;;6.05;3.60;;;;;;;28.75;35.60;96340.50;4982745;28;20045;-30
2021/09/09 01:38:37;;;;;;;4.40;3.60;;;;;;;28.74;35.71;96339.63;4966037;28;20625;-29
2021/09/09 01:41:03;;;;;;;4.70;3.47;;;;;;;28.74;35.64;96339.63;4975093;28;20031;-29
2021/09/09 01:43:30;;;;;;;4.35;3.45;;;;;;;28.74;35.62;96333.50;4966326;28;20034;-27
2021/09/09 01:45:55;;;;;;;4.78;3.55;;;;;;;28.75;35.58;96335.22;4987239;28;20038;-29
2021/09/09 01:48:20;;;;;;;5.82;3.65;;;;;;;28.74;35.73;96328.25;4975860;28;20034;-32
2021/09/09 01:50:46;;;;;;;7.25;3.83;;;;;;;28.74;35.54;96337.00;4973598;28;20034;-29
2021/09/09 01:53:11;;;;;;;5.50;3.45;;;;;;;28.74;35.62;96330.88;4971191;28;20038;-29
2021/09/09 01:55:37;;;;;;;6.57;3.90;;;;;;;28.74;35.57;96334.38;4984893;28;20034;-30
2021/09/09 01:58:02;;;;;;;3.55;3.22;;;;;;;28.74;35.71;96322.97;4971897;28;20579;-30
2021/09/09 02:00:27;;;;;;;4.07;3.42;;;;;;;28.74;35.33;96328.25;4974339;28;20058;-30
2021/09/09 02:02:53;;;;;;;7.63;3.75;;;;;;;28.74;35.51;96330.88;4978962;28;20600;-29
2021/09/09 02:05:18;;;;;;;8.40;3.95;;;;;;;28.73;35.48;96316.00;4976691;28;20034;-31
2021/09/09 02:07:44;;;;;;;5.57;3.78;;;;;;;28.74;35.56;96328.25;4973991;28;20041;-28
2021/09/09 02:10:10;;;;;;;7.95;3.67;;;;;;;28.73;35.54;96326.56;4974792;28;20492;-29
2021/09/09 02:12:35;;;;;;;4.45;3.33;;;;;;;28.73;35.40;96323.91;4971570;28;20141;-29
2021/09/09 02:15:01;;;;;;;6.78;3.20;;;;;;;28.72;35.47;96315.16;4974006;28;20026;-30
2021/09/09 02:17:26;;;;;;;6.60;3.60;;;;;;;28.73;35.43;96327.41;4966593;28;20137;-30
2021/09/09 02:19:51;;;;;;;4.40;3.53;;;;;;;28.73;35.41;96321.28;4971115;28;20084;-29
2021/09/09 02:22:17;;;;;;;4.07;3.35;;;;;;;28.72;35.53;96320.44;4974018;28;20102;-29
2021/09/09 02:24:45;;;;;;;5.35;3.90;;;;;;;28.72;35.34;96315.16;4982039;28;20543;-29
2021/09/09 02:27:14;;;;;;;5.13;3.47;;;;;;;28.71;35.31;96318.75;4968901;28;20038;-29
2021/09/09 02:29:40;;;;;;;6.03;4.00;;;;;;;28.69;35.12;96316.22;4976117;28;20030;-31
2021/09/09 02:32:05;;;;;;;5.28;3.63;;;;;;;28.67;35.13;96328.69;4949358;28;20042;-30
2021/09/09 02:34:31;;;;;;;5.20;4.15;;;;;;;28.66;34.97;96327.03;4972898;28;20657;-31
2021/09/09 02:36:56;;;;;;;6.45;4.07;;;;;;;28.63;35.15;96323.75;4949932;28;20037;-31
2021/09/09 02:39:22;;;;;;;5.05;4.07;;;;;;;28.60;35.00;96311.63;4979645;28;20029;-31
2021/09/09 02:41:47;;;;;;;5.90;4.05;;;;;;;28.60;35.12;96316.06;4937348;28;20026;-29
2021/09/09 02:44:12;;;;;;;4.35;3.70;;;;;;;28.58;35.09;96318.81;4972848;28;20064;-28
2021/09/09 02:46:38;;;;;;;5.93;4.45;;;;;;;28.53;35.22;96315.69;4972834;28;20043;-29
2021/09/09 02:49:03;;;;;;;6.45;3.80;;;;;;;28.55;35.06;96321.66;4974529;28;21899;-28
2021/09/09 02:51:29;;;;;;;5.40;3.85;;;;;;;28.54;34.96;96317.34;4968927;28;20088;-29
2021/09/09 02:53:54;;;;;;;4.25;3.83;;;;;;;28.52;35.18;96320.09;4982997;28;20049;-30
2021/09/09 02:56:20;;;;;;;4.95;3.95;;;;;;;28.51;35.12;96318.41;4974872;28;20053;-29
2021/09/09 02:58:45;;;;;;;5.43;4.18;;;;;;;28.50;35.22;96319.38;4972024;28;20527;-29
2021/09/09 03:01:12;;;;;;;6.07;4.10;;;;;;;28.49;34.67;96314.22;4964375;28;20740;-30
2021/09/09 03:03:37;;;;;;;6.60;4.10;;;;;;;28.48;35.10;96308.09;4979517;28;20501;-30
2021/09/09 03:06:03;;;;;;;4.13;3.70;;;;;;;28.47;35.13;96313.47;4967440;28;20038;-30
2021/09/09 03:08:29;;;;;;;5.43;3.70;;;;;;;28.46;35.07;96310.00;4974064;28;20033;-28
2021/09/09 03:10:54;;;;;;;6.57;3.90;;;;;;;28.46;35.06;96306.53;4969435;28;20030;-30
2021/09/09 03:13:19;;;;;;;4.80;3.78;;;;;;;28.43;35.18;96300.53;4968986;28;20100;-29
2021/09/09 03:15:45;;;;;;;8.93;3.90;;;;;;;28.42;35.36;96296.19;4966771;28;20023;-29
2021/09/09 03:18:10;;;;;;;4.43;4.00;;;;;;;28.42;35.14;96304.09;4970326;28;20069;-29
2021/09/09 03:20:36;;;;;;;4.03;3.63;;;;;;;28.41;35.25;96302.41;4967277;28;20045;-31
2021/09/09 03:23:01;;;;;;;6.10;3.97;;;;;;;28.40;35.10;96295.47;4970337;28;20432;-28
2021/09/09 03:25:26;;;;;;;4.57;3.65;;;;;;;28.39;35.13;96299.06;4968165;28;20037;-29
2021/09/09 03:27:52;;;;;;;4.43;3.75;;;;;;;28.38;35.11;96302.63;4972118;28;20037;-32
2021/09/09 03:30:17;;;;;;;6.07;3.90;;;;;;;28.39;35.00;96296.44;4976555;28;20041;-28
2021/09/09 03:32:43;;;;;;;7.47;4.35;;;;;;;28.35;35.05;96292.34;4973242;28;20043;-29
2021/09/09 03:35:08;;;;;;;5.40;3.72;;;;;;;28.34;35.20;96293.25;4968169;28;20558;-29
2021/09/09 03:37:34;;;;;;;8.27;4.40;;;;;;;28.34;35.07;96295.91;4974341;28;20033;-31
2021/09/09 03:39:59;;;;;;;5.78;4.15;;;;;;;28.33;35.06;96294.22;4976024;28;20665;-30
2021/09/09 03:42:25;;;;;;;6.40;4.13;;;;;;;28.32;35.00;96287.28;4969304;28;20027;-29
2021/09/09 03:44:50;;;;;;;5.97;4.32;;;;;;;28.31;34.93;96285.59;4970531;28;20030;-30
2021/09/09 03:47:15;;;;;;;5.85;3.92;;;;;;;28.30;35.02;96286.56;4974122;28;20023;-28
2021/09/09 03:49:41;;;;;;;5.18;3.97;;;;;;;28.29;35.07;96290.13;4972149;28;20026;-29
2021/09/09 03:52:06;;;;;;;5.30;3.97;;;;;;;28.27;35.05;96278.88;4969600;28;20061;-29
2021/09/09 03:54:32;;;;;;;6.07;4.20;;;;;;;28.24;35.13;96284.31;4980645;28;20550;-29
2021/09/09 03:56:57;;;;;;;6.53;4.10;;;;;;;28.27;34.99;96284.13;4962068;28;20041;-29
2021/09/09 03:59:22;;;;;;;6.88;4.20;;;;;;;28.27;35.03;96289.41;4975466;28;20033;-30
2021/09/09 04:01:48;;;;;;;5.63;4.22;;;;;;;28.25;34.96;96285.97;4970530;28;20457;-28
2021/09/09 04:04:13;;;;;;;5.65;4.00;;;;;;;28.25;35.01;96285.97;4977322;28;20049;-29
2021/09/09 04:06:39;;;;;;;5.30;4.13;;;;;;;28.25;34.88;96280.72;4979158;28;20384;-29
2021/09/09 04:09:04;;;;;;;6.43;4.07;;;;;;;28.24;35.10;96281.66;4976235;28;20026;-30
2021/09/09 04:11:29;;;;;;;6.43;4.60;;;;;;;28.24;34.97;96284.31;4957299;28;20026;-30
2021/09/09 04:13:55;;;;;;;8.65;4.40;;;;;;;28.23;34.87;96290.53;4971765;28;20038;-29
2021/09/09 04:16:20;;;;;;;5.65;4.20;;;;;;;28.22;35.10;96291.50;4992508;28;20424;-29
2021/09/09 04:18:46;;;;;;;6.05;4.00;;;;;;;28.22;35.05;96286.22;4978169;28;20034;-29
2021/09/09 04:21:11;;;;;;;8.30;4.28;;;;;;;28.21;35.10;96287.16;4973860;28;20500;-29
2021/09/09 04:23:36;;;;;;;5.60;4.00;;;;;;;28.21;35.03;96284.53;4979244;28;20091;-31
2021/09/09 04:26:02;;;;;;;4.57;4.07;;;;;;;28.21;34.96;96284.53;4967798;28;20026;-29
2021/09/09 04:28:27;;;;;;;7.57;4.00;;;;;;;28.20;35.13;96288.09;4968168;28;20328;-29
2021/09/09 04:30:53;;;;;;;7.00;3.90;;;;;;;28.21;35.06;96289.78;4972411;28;20536;-31
2021/09/09 04:33:18;;;;;;;5.05;4.45;;;;;;;28.21;34.90;96289.78;4970741;28;20198;-30
2021/09/09 04:35:44;;;;;;;5.35;3.83;;;;;;;28.20;35.05;96290.75;4976425;28;20030;-29
2021/09/09 04:38:09;;;;;;;7.38;4.20;;;;;;;28.21;34.96;96292.41;4972984;28;20026;-29
2021/09/09 04:40:34;;;;;;;6.70;3.95;;;;;;;28.20;34.97;96299.50;4969793;28;20444;-30
2021/09/09 04:43:00;;;;;;;4.95;3.78;;;;;;;28.21;35.11;96295.06;4967143;28;21006;-28
2021/09/09 04:45:25;;;;;;;4.30;3.80;;;;;;;28.21;35.01;96295.06;4965928;28;20030;-32
2021/09/09 04:47:52;;;;;;;7.57;4.18;;;;;;;28.23;35.25;96298.44;4967046;28;20038;-29
2021/09/09 04:50:17;;;;;;;5.63;4.70;;;;;;;28.21;35.19;96295.91;4964472;28;20034;-30
2021/09/09 04:52:43;;;;;;;5.10;4.18;;;;;;;28.22;35.22;96292.31;4969575;28;20034;-30
2021/09/09 04:55:09;;;;;;;5.93;4.30;;;;;;;28.23;35.17;96298.44;4970935;28;20504;-31
2021/09/09 04:57:34;;;;;;;5.88;4.20;;;;;;;28.22;35.22;96296.75;4963574;28;20033;-29
2021/09/09 05:00:00;;;;;;;6.80;4.30;;;;;;;28.22;35.27;96296.75;4969182;28;20038;-28
2021/09/09 05:02:25;;;;;;;4.40;3.80;;;;;;;28.21;35.07;96295.06;4966695;28;20030;-30
2021/09/09 05:04:50;;;;;;;9.07;4.25;;;;;;;28.21;35.09;96295.91;4968631;28;20623;-31
2021/09/09 05:07:16;;;;;;;5.47;4.40;;;;;;;28.20;35.07;96296.00;4977172;28;20037;-29
2021/09/09 05:09:41;;;;;;;6.45;4.43;;;;;;;28.19;34.94;96297.81;4978100;28;20041;-30
2021/09/09 05:12:07;;;;;;;5.15;4.10;;;;;;;28.18;34.91;96296.97;4969196;28;20103;-28
2021/09/09 05:14:34;;;;;;;5.63;4.20;;;;;;;28.17;35.11;96305.84;4974209;28;20038;-28
2021/09/09 05:17:00;;;;;;;8.38;4.13;;;;;;;28.17;34.84;96304.97;4970453;28;20072;-30
2021/09/09 05:19:25;;;;;;;4.95;4.32;;;;;;;28.15;35.03;96307.72;4975746;28;20034;-32
2021/09/09 05:21:51;;;;;;;6.43;4.30;;;;;;;28.15;35.13;96307.72;4975641;28;20063;-30
2021/09/09 05:24:16;;;;;;;7.18;4.32;;;;;;;28.14;35.12;96306.03;4975286;28;20030;-31
2021/09/09 05:26:41;;;;;;;4.60;3.90;;;;;;;28.13;35.08;96307.00;4968025;28;20532;-29
2021/09/09 05:29:07;;;;;;;5.47;4.00;;;;;;;28.14;35.21;96305.19;4973724;28;20046;-29
2021/09/09 05:31:32;;;;;;;4.65;4.00;;;;;;;28.14;35.21;96305.19;4964035;28;20042;-30
2021/09/09 05:33:58;;;;;;;6.57;4.07;;;;;;;28.14;35.34;96308.69;4971228;28;20554;-30
2021/09/09 05:36:23;;;;;;;6.15;3.70;;;;;;;28.14;35.31;96313.09;4971929;28;20072;-29
2021/09/09 05:38:48;;;;;;;4.07;3.67;;;;;;;28.14;35.42;96311.31;4965124;28;20030;-29
2021/09/09 05:41:14;;;;;;;6.22;4.15;;;;;;;28.16;35.34;96313.84;4976067;28;20108;-29
2021/09/09 05:43:39;;;;;;;6.28;3.80;;;;;;;28.16;35.34;96317.31;4976489;28;20560;-31
2021/09/09 05:46:05;;;;;;;5.03;3.97;;;;;;;28.18;35.53;96317.19;4979564;28;20042;-30
2021/09/09 05:48:30;;;;;;;6.18;3.75;;;;;;;28.16;35.38;96309.44;4973768;28;20723;-29
2021/09/09 05:50:55;;;;;;;6.90;3.80;;;;;;;28.17;35.38;96316.38;4979155;28;20045;-29
2021/09/09 05:53:21;;;;;;;6.13;4.00;;;;;;;28.18;35.41;96307.50;4971229;28;20080;-29
2021/09/09 05:55:46;;;;;;;8.60;3.92;;;;;;;28.18;35.21;96310.16;4972985;28;20030;-31
2021/09/09 05:58:12;;;;;;;7.93;3.90;;;;;;;28.18;35.30;96317.19;4973480;28;20033;-32
2021/09/09 06:00:37;;;;;;;6.03;3.72;;;;;;;28.18;35.37;96315.41;4975659;28;20038;-30
2021/09/09 06:03:03;;;;;;;6.53;3.58;;;;;;;28.20;35.53;96322.34;4968017;28;20033;-27
2021/09/09 06:05:28;;;;;;;5.65;4.05;;;;;;;28.21;35.48;96332.78;4974801;28;20071;-30
2021/09/09 06:07:54;;;;;;;5.15;4.07;;;;;;;28.23;35.53;96330.06;4954954;28;20069;-30
2021/09/09 06:10:19;;;;;;;7.57;3.95;;;;;;;28.24;35.57;96326.47;4976415;28;20385;-30
2021/09/09 06:12:45;;;;;;;5.47;3.83;;;;;;;28.25;35.83;96325.50;4973215;28;20049;-29
2021/09/09 06:15:10;;;;;;;7.53;3.97;;;;;;;28.27;35.87;96331.56;4973168;28;20745;-30
2021/09/09 06:17:36;;;;;;;7.82;3.80;;;;;;;28.28;35.92;96331.44;4968442;28;20030;-29
2021/09/09 06:20:01;;;;;;;4.70;3.67;;;;;;;28.29;36.11;96340.19;4975385;28;20034;-30
2021/09/09 06:22:27;;;;;;;6.90;3.70;;;;;;;28.30;36.01;96331.34;4973585;28;20392;-30
2021/09/09 06:24:52;;;;;;;5.38;4.00;;;;;;;28.30;35.99;96334.81;4980026;28;20026;-30
2021/09/09 06:27:17;;;;;;;4.72;3.55;;;;;;;28.32;36.09;96334.69;4976068;28;20058;-30
2021/09/09 06:29:43;;;;;;;6.70;4.10;;;;;;;28.34;35.87;96337.22;4976720;28;20041;-29
2021/09/09 06:32:08;;;;;;;6.53;3.78;;;;;;;28.34;35.87;96338.06;4971521;28;20037;-30
2021/09/09 06:34:34;;;;;;;4.82;3.88;;;;;;;28.34;36.02;96338.06;4981127;28;20033;-30
2021/09/09 06:36:59;;;;;;;5.82;4.18;;;;;;;28.36;35.95;96346.72;4971597;28;20037;-30
2021/09/09 06:39:24;;;;;;;6.00;3.95;;;;;;;28.37;35.97;96342.28;4948970;28;20041;-29
2021/09/09 06:41:50;;;;;;;6.38;3.90;;;;;;;28.38;36.12;96349.25;4979249;28;20054;-29
2021/09/09 06:44:15;;;;;;;7.97;4.10;;;;;;;28.39;35.87;96341.22;4966327;28;20073;-30
2021/09/09 06:46:41;;;;;;;10.70;4.20;;;;;;;28.39;36.01;96335.97;4944582;28;20057;-29
2021/09/09 06:49:07;;;;;;;12.90;5.15;;;;;;;28.41;36.03;96341.09;4968049;28;20030;-29
2021/09/09 06:51:32;;;;;;;23.08;6.75;;;;;;;28.40;36.17;96337.63;4972379;28;20030;-30
2021/09/09 06:53:58;;;;;;;17.52;6.40;;;;;;;28.40;36.19;96334.16;4971645;28;20030;-29
2021/09/09 06:56:23;;;;;;;15.30;5.93;;;;;;;28.40;35.99;96337.63;4970697;28;20044;-30
2021/09/09 06:58:49;;;;;;;19.85;6.25;;;;;;;28.40;36.07;96336.78;4967171;28;20132;-30
2021/09/09 07:01:14;;;;;;;12.55;5.90;;;;;;;28.39;36.03;96329.84;4969426;28;20041;-30
2021/09/09 07:03:40;;;;;;;15.27;6.20;;;;;;;28.37;36.07;96332.56;4967402;28;20022;-30
2021/09/09 07:06:05;;;;;;;14.30;6.00;;;;;;;28.35;35.94;96329.22;4966581;28;20517;-28
2021/09/09 07:08:31;;;;;;;12.40;6.57;;;;;;;28.36;36.22;96325.63;4967888;28;20030;-29
2021/09/09 07:10:56;;;;;;;8.90;5.75;;;;;;;28.36;36.23;96328.25;4982253;28;20030;-30
2021/09/09 07:13:23;;;;;;;14.95;5.75;;;;;;;28.35;36.36;96323.94;4969021;28;20041;-29
2021/09/09 07:15:48;;;;;;;18.33;5.82;;;;;;;28.34;36.34;96332.78;4967458;28;20037;-29
2021/09/09 07:18:14;;;;;;;11.98;6.28;;;;;;;28.34;36.30;96332.78;4967668;28;20034;-29
2021/09/09 07:20:39;;;;;;;12.73;5.70;;;;;;;28.34;36.52;96332.78;4961452;28;20037;-30
2021/09/09 07:23:05;;;;;;;15.70;6.53;;;;;;;28.35;36.26;96336.28;4972002;28;20042;-29
2021/09/09 07:25:30;;;;;;;16.50;6.35;;;;;;;28.36;36.36;96333.53;4972322;28;20030;-29
2021/09/09 07:27:56;;;;;;;15.65;6.25;;;;;;;28.37;36.34;96337.84;4972129;28;20460;-30
2021/09/09 07:30:21;;;;;;;24.40;7.50;;;;;;;28.36;36.48;96336.16;4966580;28;20061;-29
2021/09/09 07:32:46;;;;;;;12.93;6.25;;;;;;;28.36;36.33;96335.31;4964545;28;20035;-28
2021/09/09 07:35:12;;;;;;;9.88;6.32;;;;;;;28.35;36.36;96339.75;4963398;28;20038;-29
2021/09/09 07:37:38;;;;;;;7.70;5.95;;;;;;;28.35;36.40;96345.03;4970932;28;20489;-30
2021/09/09 07:40:04;;;;;;;8.00;6.35;;;;;;;28.35;36.28;96339.75;4967577;28;20157;-29
2021/09/09 07:42:29;;;;;;;13.50;6.18;;;;;;;28.35;36.26;96341.53;4965922;28;20034;-29
2021/09/09 07:44:55;;;;;;;10.48;6.43;;;;;;;28.34;36.16;96348.59;4964896;28;20152;-29
2021/09/09 07:47:20;;;;;;;13.50;5.88;;;;;;;28.32;36.09;96353.16;4960676;28;20727;-29
2021/09/09 07:49:46;;;;;;;10.38;6.00;;;;;;;28.33;36.24;96352.19;4964489;28;20026;-30
2021/09/09 07:52:11;;;;;;;11.82;6.10;;;;;;;28.32;36.09;96358.41;4961894;28;20539;-29
2021/09/09 07:54:36;;;;;;;12.35;5.60;;;;;;;28.32;36.06;96360.19;4962915;28;20038;-30
2021/09/09 07:57:02;;;;;;;9.02;5.63;;;;;;;28.32;36.37;96360.19;4961370;28;20539;-29
2021/09/09 07:59:27;;;;;;;9.07;5.97;;;;;;;28.31;36.25;96356.75;4964496;28;20326;-31
2021/09/09 08:01:53;;;;;;;8.48;5.88;;;;;;;28.31;36.22;96359.38;4962050;28;20140;-30
2021/09/09 08:04:18;;;;;;;11.73;5.63;;;;;;;28.32;36.21;96361.06;4965687;28;20113;-29
2021/09/09 08:06:44;;;;;;;12.95;5.75;;;;;;;28.32;36.29;96366.31;4965983;28;20033;-30
2021/09/09 08:09:10;;;;;;;12.30;5.50;;;;;;;28.34;36.20;96368.84;4968748;28;20030;-29
2021/09/09 08:11:35;;;;;;;9.65;6.40;;;;;;;28.34;36.39;96374.94;4964896;28;20037;-30
2021/09/09 08:14:01;;;;;;;11.50;5.50;;;;;;;28.35;36.31;96374.03;4963648;28;20631;-29
2021/09/09 08:16:26;;;;;;;10.32;5.88;;;;;;;28.35;36.38;96376.66;4981734;28;20026;-30
2021/09/09 08:18:51;;;;;;;9.30;5.88;;;;;;;28.36;36.14;96377.47;4963802;28;20030;-31
2021/09/09 08:21:17;;;;;;;9.88;5.90;;;;;;;28.36;36.23;96378.34;4963100;28;20066;-30
2021/09/09 08:23:42;;;;;;;8.10;5.63;;;;;;;28.36;36.21;96377.47;4965813;28;20045;-29
2021/09/09 08:26:08;;;;;;;11.13;5.65;;;;;;;28.37;36.24;96376.56;4963226;28;20045;-28
2021/09/09 08:28:34;;;;;;;8.60;5.88;;;;;;;28.37;36.17;96374.75;4966003;28;20062;-28
2021/09/09 08:30:59;;;;;;;7.63;5.32;;;;;;;28.38;36.25;96371.16;4961236;28;20030;-30
2021/09/09 08:33:25;;;;;;;9.05;5.72;;;;;;;28.39;36.36;96378.13;4963707;28;20042;-29
2021/09/09 08:35:50;;;;;;;13.48;5.78;;;;;;;28.40;36.33;96374.53;4962004;28;20527;-29
2021/09/09 08:38:16;;;;;;;9.30;5.90;;;;;;;28.41;36.46;96381.47;4963450;28;20030;-30
2021/09/09 08:40:41;;;;;;;11.43;5.90;;;;;;;28.44;36.37;96380.41;4962258;28;20037;-30
2021/09/09 08:43:07;;;;;;;12.52;5.90;;;;;;;28.43;36.12;96384.88;4980443;28;21105;-30
2021/09/09 08:45:32;;;;;;;8.93;5.65;;;;;;;28.45;36.20;96389.19;4980160;28;20234;-30
2021/09/09 08:48:01;;;;;;;8.60;5.38;;;;;;;28.45;36.33;96392.63;4962872;28;21534;-30
2021/09/09 08:50:26;;;;;;;11.02;5.82;;;;;;;28.46;36.17;96390.84;4963163;28;20689;-30
2021/09/09 08:52:52;;;;;;;8.85;6.03;;;;;;;28.46;36.29;96393.50;4963249;28;20023;-29
2021/09/09 08:55:19;;;;;;;11.75;5.50;;;;;;;28.48;36.23;96396.84;4968149;28;20037;-31
2021/09/09 08:57:44;;;;;;;9.18;5.80;;;;;;;28.49;36.28;96398.56;4966715;28;20026;-31
2021/09/09 09:00:10;;;;;;;11.60;5.90;;;;;;;28.50;36.30;96405.50;4965372;28;20124;-30
2021/09/09 09:02:55;;;;;;;7.90;4.82;;;;;;;28.51;35.83;96407.19;4964282;28;20169;-28
2021/09/09 09:08:58;;;;;;;6.10;4.38;;;;;;;28.51;35.08;96402.75;4960572;28;20049;-30
2021/09/09 09:11:32;;;;;;;10.82;5.05;;;;;;;28.51;34.97;96397.50;4961860;28;20693;-30
2021/09/09 09:13:57;;;;;;;7.68;4.93;;;;;;;28.52;34.82;96406.22;4966265;28;20045;-28
2021/09/09 09:16:23;;;;;;;9.65;4.47;;;;;;;28.52;34.56;96395.69;4971516;28;20728;-30
2021/09/09 09:18:48;;;;;;;8.43;4.32;;;;;;;28.53;34.43;96402.66;4965183;28;20079;-30
2021/09/09 09:21:14;;;;;;;13.88;4.47;;;;;;;28.53;34.54;96400.03;4974910;28;20030;-30
2021/09/09 09:23:47;;;;;;;35.72;5.47;;;;;;;28.54;34.55;96401.72;4976033;28;20037;-29
2021/09/09 09:26:13;;;;;;;13.05;4.82;;;;;;;28.55;34.73;96400.75;4978042;28;20026;-29
2021/09/09 09:28:48;;;;;;;13.63;5.05;;;;;;;28.55;35.15;96398.09;4974975;28;20039;-29
2021/09/09 09:31:34;;;;;;;11.05;4.90;;;;;;;28.56;34.72;96405.06;4973466;28;20070;-31
2021/09/09 09:34:00;;;;;;;6.30;4.60;;;;;;;28.56;34.69;96398.00;4978843;28;20331;-29
2021/09/09 09:36:27;;;;;;;10.63;5.00;;;;;;;28.56;34.42;96410.34;4976336;28;20049;-31
2021/09/09 09:38:54;;;;;;;7.80;4.53;;;;;;;28.58;34.51;96397.03;4970351;28;20034;-30
2021/09/09 09:41:22;;;;;;;9.77;4.70;;;;;;;28.58;34.76;96399.69;4973045;28;20076;-30
2021/09/09 09:43:55;;;;;;;13.57;4.50;;;;;;;28.60;34.62;96395.97;4970960;28;20030;-29
2021/09/09 09:46:28;;;;;;;8.23;4.40;;;;;;;28.61;34.54;96397.69;4977928;28;20029;-29
2021/09/09 09:48:53;;;;;;;6.55;4.40;;;;;;;28.62;34.46;96399.38;4963097;28;20050;-31
2021/09/09 09:51:39;;;;;;;10.38;3.95;;;;;;;28.62;34.46;96394.09;4981159;28;20101;-30
2021/09/09 09:54:09;;;;;;;13.05;4.65;;;;;;;28.64;34.42;96391.34;4978286;28;20120;-30
2021/09/09 09:56:35;;;;;;;8.13;4.47;;;;;;;28.63;34.30;96398.41;4974841;28;20026;-30
2021/09/09 09:59:00;;;;;;;9.45;4.88;;;;;;;28.64;34.36;96396.63;4973304;28;20591;-29
2021/09/09 10:01:26;;;;;;;10.15;4.88;;;;;;;28.66;34.42;96399.97;4975314;28;20064;-30
2021/09/09 10:03:51;;;;;;;7.97;4.75;;;;;;;28.66;34.94;96397.34;4957182;28;20045;-29
2021/09/09 10:06:17;;;;;;;6.88;4.10;;;;;;;28.64;35.03;96392.19;4952433;28;20034;-32
2021/09/09 10:08:44;;;;;;;4.60;4.10;;;;;;;28.66;35.40;96406.13;4961042;28;20052;-30
2021/09/09 10:11:10;;;;;;;6.93;3.90;;;;;;;28.65;35.67;96409.69;4966970;28;20508;-30
2021/09/09 10:13:37;;;;;;;5.35;3.70;;;;;;;28.66;35.69;96410.53;4970601;28;20042;-33
2021/09/09 10:16:02;;;;;;;6.97;4.30;;;;;;;28.68;35.50;96409.47;4968557;28;20031;-31
2021/09/09 10:18:28;;;;;;;6.90;3.78;;;;;;;28.74;35.42;96402.91;4974689;28;20086;-31
2021/09/09 10:20:53;;;;;;;7.28;4.13;;;;;;;28.83;35.23;96402.25;4979677;28;20674;-32
2021/09/09 10:23:20;;;;;;;5.60;3.90;;;;;;;28.92;35.01;96400.75;4977737;28;20037;-30
2021/09/09 10:25:47;;;;;;;5.78;3.72;;;;;;;29.08;34.84;96402.31;4953948;28;20025;-29
2021/09/09 10:28:46;;;;;;;5.93;4.03;;;;;;;29.24;34.70;96409.94;4972446;28;20145;-29
2021/09/09 10:31:21;;;;;;;6.25;4.03;;;;;;;29.40;34.64;96403.53;4966088;28;20142;-30
2021/09/09 10:33:48;;;;;;;6.25;3.80;;;;;;;29.55;34.21;96401.56;4952951;28;20030;-30
2021/09/09 10:36:35;;;;;;;5.97;3.65;;;;;;;29.68;34.06;96402.31;4945351;28;20571;-26
2021/09/09 10:39:00;;;;;;;5.32;3.85;;;;;;;29.80;33.96;96399.72;4946047;28;20035;-31
2021/09/09 10:41:27;;;;;;;8.93;3.60;;;;;;;29.90;33.53;96403.31;4949602;28;20089;-30
2021/09/09 10:43:56;;;;;;;5.53;3.53;;;;;;;30.01;33.72;96386.66;4947229;28;20114;-30
2021/09/09 10:46:28;;;;;;;6.95;3.90;;;;;;;30.11;33.50;96397.34;4947021;28;20413;-31
2021/09/09 10:49:08;;;;;;;8.32;3.40;;;;;;;30.21;33.59;96393.06;4953537;28;20026;-29
2021/09/09 10:51:33;;;;;;;4.88;3.72;;;;;;;30.31;33.12;96393.19;4947782;28;20034;-29
2021/09/09 10:54:00;;;;;;;5.75;3.63;;;;;;;30.40;33.33;96402.19;4953870;28;20508;-27
2021/09/09 10:56:36;;;;;;;7.40;3.85;;;;;;;30.46;33.14;96399.06;4954483;28;20030;-28
2021/09/09 10:59:21;;;;;;;9.43;3.95;;;;;;;30.49;33.05;96390.06;4959472;28;20042;-28
2021/09/09 11:01:48;;;;;;;6.13;3.90;;;;;;;30.52;33.01;96395.13;4961316;28;20137;-28
2021/09/09 11:04:33;;;;;;;9.52;4.07;;;;;;;30.51;32.93;96388.97;4960925;28;20031;-28
2021/09/09 11:06:59;;;;;;;6.07;4.00;;;;;;;30.50;33.21;96382.00;4962528;28;20456;-28
2021/09/09 11:09:25;;;;;;;10.02;3.80;;;;;;;30.47;33.12;96382.25;4964014;28;20035;-28
2021/09/09 11:12:04;;;;;;;5.85;3.75;;;;;;;30.44;33.38;96377.19;4944021;28;20351;-28
2021/09/09 11:14:32;;;;;;;8.80;4.13;;;;;;;30.40;33.26;96373.09;4962205;28;20035;-28
2021/09/09 11:16:58;;;;;;;6.57;3.53;;;;;;;30.36;33.19;96374.34;4959865;28;20034;-28
2021/09/09 11:19:23;;;;;;;7.97;3.88;;;;;;;30.32;33.53;96380.81;4961409;28;20046;-27
2021/09/09 11:21:49;;;;;;;6.82;3.75;;;;;;;30.27;33.24;96373.25;4961874;28;20057;-29
2021/09/09 11:24:15;;;;;;;8.23;3.80;;;;;;;30.22;33.47;96378.06;4963882;28;20057;-28
2021/09/09 11:26:42;;;;;;;8.52;4.00;;;;;;;30.19;33.43;96381.78;4963133;28;20037;-29
2021/09/09 11:29:08;;;;;;;9.48;4.05;;;;;;;30.15;33.45;96377.69;4966531;28;20054;-27
2021/09/09 11:31:53;;;;;;;4.97;3.85;;;;;;;30.10;33.52;96374.53;4961492;28;20030;-28